sensor_id;sensor_type;location;lat;lon;timestamp;pressure;altitude;pressure_sealevel;temperature;humidity
49461;BME280;35355;49.198;-0.368;2023-04-07T00:01:15;101318.34;;;10.28;67.25
49461;BME280;35355;49.198;-0.368;2023-04-07T00:03:40;101308.75;;;10.26;67.33
49461;BME280;35355;49.198;-0.368;2023-04-07T00:06:06;101313.38;;;10.25;67.25
49461;BME280;35355;49.198;-0.368;2023-04-07T00:08:31;101309.59;;;10.26;67.51
49461;BME280;35355;49.198;-0.368;2023-04-07T00:10:57;101321.56;;;10.25;67.36
49461;BME280;35355;49.198;-0.368;2023-04-07T00:13:22;101319.34;;;10.22;67.10
49461;BME280;35355;49.198;-0.368;2023-04-07T00:15:48;101318.16;;;10.18;67.14
49461;BME280;35355;49.198;-0.368;2023-04-07T00:18:13;101319.47;;;10.15;67.31
49461;BME280;35355;49.198;-0.368;2023-04-07T00:20:38;101329.00;;;10.13;67.44
49461;BME280;35355;49.198;-0.368;2023-04-07T00:23:04;101318.78;;;10.08;67.57
49461;BME280;35355;49.198;-0.368;2023-04-07T00:25:29;101325.09;;;10.09;67.49
49461;BME280;35355;49.198;-0.368;2023-04-07T00:27:55;101317.41;;;10.06;67.44
49461;BME280;35355;49.198;-0.368;2023-04-07T00:30:20;101313.84;;;10.05;67.40
49461;BME280;35355;49.198;-0.368;2023-04-07T00:32:46;101320.38;;;10.04;67.48
49461;BME280;35355;49.198;-0.368;2023-04-07T00:35:11;101320.63;;;10.03;67.68
49461;BME280;35355;49.198;-0.368;2023-04-07T00:37:36;101322.25;;;10.04;67.90
49461;BME280;35355;49.198;-0.368;2023-04-07T00:40:03;101327.97;;;10.02;67.72
49461;BME280;35355;49.198;-0.368;2023-04-07T00:42:28;101317.28;;;10.00;67.72
49461;BME280;35355;49.198;-0.368;2023-04-07T00:44:54;101312.09;;;9.99;67.71
49461;BME280;35355;49.198;-0.368;2023-04-07T00:47:19;101310.41;;;9.98;67.59
49461;BME280;35355;49.198;-0.368;2023-04-07T00:49:45;101315.66;;;9.99;67.81
49461;BME280;35355;49.198;-0.368;2023-04-07T00:52:11;101312.94;;;9.99;67.82
49461;BME280;35355;49.198;-0.368;2023-04-07T00:54:37;101308.78;;;9.97;67.76
49461;BME280;35355;49.198;-0.368;2023-04-07T00:57:05;101312.81;;;9.94;67.80
49461;BME280;35355;49.198;-0.368;2023-04-07T00:59:30;101315.78;;;9.93;67.86
49461;BME280;35355;49.198;-0.368;2023-04-07T01:02:07;101309.75;;;9.91;67.67
49461;BME280;35355;49.198;-0.368;2023-04-07T01:04:50;101316.59;;;9.93;67.29
49461;BME280;35355;49.198;-0.368;2023-04-07T01:07:23;101327.50;;;9.93;67.53
49461;BME280;35355;49.198;-0.368;2023-04-07T01:09:57;101321.72;;;9.90;67.43
49461;BME280;35355;49.198;-0.368;2023-04-07T01:12:40;101328.50;;;9.87;67.41
49461;BME280;35355;49.198;-0.368;2023-04-07T01:15:10;101322.56;;;9.90;67.81
49461;BME280;35355;49.198;-0.368;2023-04-07T01:17:38;101316.53;;;9.88;67.91
49461;BME280;35355;49.198;-0.368;2023-04-07T01:20:09;101318.19;;;9.89;67.78
49461;BME280;35355;49.198;-0.368;2023-04-07T01:22:40;101321.16;;;9.88;68.25
49461;BME280;35355;49.198;-0.368;2023-04-07T01:28:43;101324.09;;;9.86;67.69
49461;BME280;35355;49.198;-0.368;2023-04-07T01:31:14;101324.59;;;9.83;67.90
49461;BME280;35355;49.198;-0.368;2023-04-07T01:33:43;101327.81;;;9.80;67.57
49461;BME280;35355;49.198;-0.368;2023-04-07T01:36:11;101327.47;;;9.76;67.82
49461;BME280;35355;49.198;-0.368;2023-04-07T01:38:37;101324.13;;;9.74;67.81
49461;BME280;35355;49.198;-0.368;2023-04-07T01:41:04;101322.13;;;9.70;67.91
49461;BME280;35355;49.198;-0.368;2023-04-07T01:43:31;101317.28;;;9.72;68.02
49461;BME280;35355;49.198;-0.368;2023-04-07T01:45:56;101328.78;;;9.74;67.97
49461;BME280;35355;49.198;-0.368;2023-04-07T01:48:22;101321.41;;;9.74;68.28
49461;BME280;35355;49.198;-0.368;2023-04-07T01:50:49;101320.34;;;9.75;68.09
49461;BME280;35355;49.198;-0.368;2023-04-07T01:53:15;101316.56;;;9.76;68.10
49461;BME280;35355;49.198;-0.368;2023-04-07T01:55:41;101321.53;;;9.79;68.33
49461;BME280;35355;49.198;-0.368;2023-04-07T01:58:07;101313.69;;;9.83;68.10
49461;BME280;35355;49.198;-0.368;2023-04-07T02:00:33;101326.25;;;9.84;68.02
49461;BME280;35355;49.198;-0.368;2023-04-07T02:03:06;101330.66;;;9.85;67.91
49461;BME280;35355;49.198;-0.368;2023-04-07T02:05:34;101329.78;;;9.84;68.19
49461;BME280;35355;49.198;-0.368;2023-04-07T02:08:03;101325.91;;;9.80;68.06
49461;BME280;35355;49.198;-0.368;2023-04-07T02:10:32;101329.47;;;9.81;67.92
49461;BME280;35355;49.198;-0.368;2023-04-07T02:13:00;101328.66;;;9.80;67.92
49461;BME280;35355;49.198;-0.368;2023-04-07T02:15:29;101336.59;;;9.82;68.29
49461;BME280;35355;49.198;-0.368;2023-04-07T02:17:56;101331.13;;;9.82;68.07
49461;BME280;35355;49.198;-0.368;2023-04-07T02:20:22;101330.28;;;9.81;68.21
49461;BME280;35355;49.198;-0.368;2023-04-07T02:22:48;101337.41;;;9.82;68.36
49461;BME280;35355;49.198;-0.368;2023-04-07T02:25:26;101333.25;;;9.80;68.17
49461;BME280;35355;49.198;-0.368;2023-04-07T02:27:53;101333.25;;;9.80;68.39
49461;BME280;35355;49.198;-0.368;2023-04-07T02:30:20;101330.78;;;9.78;68.27
49461;BME280;35355;49.198;-0.368;2023-04-07T02:32:46;101335.41;;;9.78;68.29
49461;BME280;35355;49.198;-0.368;2023-04-07T02:35:11;101337.31;;;9.77;68.36
49461;BME280;35355;49.198;-0.368;2023-04-07T02:37:37;101337.56;;;9.76;68.24
49461;BME280;35355;49.198;-0.368;2023-04-07T02:40:04;101333.97;;;9.75;68.31
49461;BME280;35355;49.198;-0.368;2023-04-07T02:42:30;101336.13;;;9.73;68.26
49461;BME280;35355;49.198;-0.368;2023-04-07T02:44:55;101340.16;;;9.71;68.25
49461;BME280;35355;49.198;-0.368;2023-04-07T02:47:21;101336.88;;;9.69;68.17
49461;BME280;35355;49.198;-0.368;2023-04-07T02:49:46;101337.09;;;9.67;68.36
49461;BME280;35355;49.198;-0.368;2023-04-07T02:52:12;101340.28;;;9.64;68.28
49461;BME280;35355;49.198;-0.368;2023-04-07T02:54:37;101339.72;;;9.62;68.39
49461;BME280;35355;49.198;-0.368;2023-04-07T02:57:03;101345.06;;;9.57;68.27
49461;BME280;35355;49.198;-0.368;2023-04-07T02:59:28;101340.91;;;9.54;68.27
49461;BME280;35355;49.198;-0.368;2023-04-07T03:01:53;101336.75;;;9.52;68.36
49461;BME280;35355;49.198;-0.368;2023-04-07T03:04:19;101348.72;;;9.51;68.43
49461;BME280;35355;49.198;-0.368;2023-04-07T03:06:44;101343.50;;;9.49;68.34
49461;BME280;35355;49.198;-0.368;2023-04-07T03:09:10;101350.63;;;9.50;68.13
49461;BME280;35355;49.198;-0.368;2023-04-07T03:11:35;101345.44;;;9.48;67.86
49461;BME280;35355;49.198;-0.368;2023-04-07T03:14:01;101347.09;;;9.50;67.90
49461;BME280;35355;49.198;-0.368;2023-04-07T03:16:26;101345.66;;;9.47;67.83
49461;BME280;35355;49.198;-0.368;2023-04-07T03:18:52;101346.72;;;9.46;67.92
49461;BME280;35355;49.198;-0.368;2023-04-07T03:21:17;101345.09;;;9.45;67.89
49461;BME280;35355;49.198;-0.368;2023-04-07T03:23:42;101345.91;;;9.45;68.19
49461;BME280;35355;49.198;-0.368;2023-04-07T03:26:08;101342.13;;;9.46;68.30
49461;BME280;35355;49.198;-0.368;2023-04-07T03:28:33;101348.38;;;9.47;68.39
49461;BME280;35355;49.198;-0.368;2023-04-07T03:30:58;101347.34;;;9.48;68.29
49461;BME280;35355;49.198;-0.368;2023-04-07T03:33:24;101341.28;;;9.46;68.23
49461;BME280;35355;49.198;-0.368;2023-04-07T03:35:49;101349.44;;;9.46;67.98
49461;BME280;35355;49.198;-0.368;2023-04-07T03:38:14;101343.41;;;9.44;68.14
49461;BME280;35355;49.198;-0.368;2023-04-07T03:40:40;101355.38;;;9.43;68.25
49461;BME280;35355;49.198;-0.368;2023-04-07T03:43:05;101344.72;;;9.41;68.07
49461;BME280;35355;49.198;-0.368;2023-04-07T03:45:36;101336.22;;;9.38;68.23
49461;BME280;35355;49.198;-0.368;2023-04-07T03:48:02;101339.75;;;9.38;68.27
49461;BME280;35355;49.198;-0.368;2023-04-07T03:50:27;101339.16;;;9.36;68.03
49461;BME280;35355;49.198;-0.368;2023-04-07T03:52:52;101335.59;;;9.36;67.91
49461;BME280;35355;49.198;-0.368;2023-04-07T03:55:18;101342.97;;;9.35;68.09
49461;BME280;35355;49.198;-0.368;2023-04-07T03:57:43;101321.88;;;9.30;67.84
49461;BME280;35355;49.198;-0.368;2023-04-07T04:00:09;101337.16;;;9.32;67.76
49461;BME280;35355;49.198;-0.368;2023-04-07T04:02:34;101337.63;;;9.28;67.55
49461;BME280;35355;49.198;-0.368;2023-04-07T04:05:00;101345.69;;;9.23;67.33
49461;BME280;35355;49.198;-0.368;2023-04-07T04:07:25;101356.44;;;9.18;67.13
49461;BME280;35355;49.198;-0.368;2023-04-07T04:09:51;101355.28;;;9.14;67.05
49461;BME280;35355;49.198;-0.368;2023-04-07T04:12:16;101352.19;;;9.10;66.94
49461;BME280;35355;49.198;-0.368;2023-04-07T04:14:42;101351.25;;;9.05;67.19
49461;BME280;35355;49.198;-0.368;2023-04-07T04:17:07;101359.88;;;9.02;67.07
49461;BME280;35355;49.198;-0.368;2023-04-07T04:19:32;101358.72;;;8.98;67.06
49461;BME280;35355;49.198;-0.368;2023-04-07T04:21:58;101355.88;;;8.92;67.04
49461;BME280;35355;49.198;-0.368;2023-04-07T04:24:23;101355.53;;;8.89;67.02
49461;BME280;35355;49.198;-0.368;2023-04-07T04:26:48;101363.06;;;8.87;66.67
49461;BME280;35355;49.198;-0.368;2023-04-07T04:29:14;101358.94;;;8.84;66.86
49461;BME280;35355;49.198;-0.368;2023-04-07T04:31:39;101364.03;;;8.81;66.94
49461;BME280;35355;49.198;-0.368;2023-04-07T04:34:05;101362.13;;;8.81;66.84
49461;BME280;35355;49.198;-0.368;2023-04-07T04:36:30;101363.19;;;8.80;66.84
49461;BME280;35355;49.198;-0.368;2023-04-07T04:38:56;101358.00;;;8.78;66.77
49461;BME280;35355;49.198;-0.368;2023-04-07T04:41:21;101355.50;;;8.77;66.82
49461;BME280;35355;49.198;-0.368;2023-04-07T04:43:46;101359.06;;;8.77;66.93
49461;BME280;35355;49.198;-0.368;2023-04-07T04:46:12;101364.50;;;8.77;67.06
49461;BME280;35355;49.198;-0.368;2023-04-07T04:48:37;101372.41;;;8.79;66.81
49461;BME280;35355;49.198;-0.368;2023-04-07T04:51:03;101367.56;;;8.81;66.91
49461;BME280;35355;49.198;-0.368;2023-04-07T04:53:28;101363.19;;;8.80;67.07
49461;BME280;35355;49.198;-0.368;2023-04-07T04:55:53;101369.47;;;8.81;66.79
49461;BME280;35355;49.198;-0.368;2023-04-07T04:58:20;101371.38;;;8.80;67.04
49461;BME280;35355;49.198;-0.368;2023-04-07T05:00:45;101365.31;;;8.78;66.87
49461;BME280;35355;49.198;-0.368;2023-04-07T05:03:11;101368.28;;;8.76;67.06
49461;BME280;35355;49.198;-0.368;2023-04-07T05:05:36;101365.31;;;8.78;66.99
49461;BME280;35355;49.198;-0.368;2023-04-07T05:08:02;101366.16;;;8.78;67.00
49461;BME280;35355;49.198;-0.368;2023-04-07T05:10:27;101363.19;;;8.80;67.11
49461;BME280;35355;49.198;-0.368;2023-04-07T05:12:53;101368.66;;;8.80;67.12
49461;BME280;35355;49.198;-0.368;2023-04-07T05:15:18;101370.91;;;8.83;66.94
49461;BME280;35355;49.198;-0.368;2023-04-07T05:17:43;101368.19;;;8.83;66.66
49461;BME280;35355;49.198;-0.368;2023-04-07T05:20:14;101371.94;;;8.82;66.80
49461;BME280;35355;49.198;-0.368;2023-04-07T05:22:39;101371.38;;;8.80;66.38
49461;BME280;35355;49.198;-0.368;2023-04-07T05:25:05;101374.56;;;8.77;66.57
49461;BME280;35355;49.198;-0.368;2023-04-07T05:27:31;101370.66;;;8.73;66.45
49461;BME280;35355;49.198;-0.368;2023-04-07T05:29:56;101381.16;;;8.69;66.30
49461;BME280;35355;49.198;-0.368;2023-04-07T05:32:23;101373.69;;;8.65;66.43
49461;BME280;35355;49.198;-0.368;2023-04-07T05:34:48;101374.78;;;8.64;65.97
49461;BME280;35355;49.198;-0.368;2023-04-07T05:37:13;101374.41;;;8.60;66.31
49461;BME280;35355;49.198;-0.368;2023-04-07T05:39:39;101379.25;;;8.58;66.09
49461;BME280;35355;49.198;-0.368;2023-04-07T05:42:05;101381.34;;;8.56;66.00
49461;BME280;35355;49.198;-0.368;2023-04-07T05:44:30;101381.00;;;8.52;65.76
49461;BME280;35355;49.198;-0.368;2023-04-07T05:46:55;101381.47;;;8.49;65.92
49461;BME280;35355;49.198;-0.368;2023-04-07T05:49:21;101375.41;;;8.47;65.86
49461;BME280;35355;49.198;-0.368;2023-04-07T05:51:46;101379.22;;;8.46;65.76
49461;BME280;35355;49.198;-0.368;2023-04-07T05:54:12;101383.81;;;8.46;65.83
49461;BME280;35355;49.198;-0.368;2023-04-07T05:56:37;101380.84;;;8.47;66.14
49461;BME280;35355;49.198;-0.368;2023-04-07T05:59:02;101384.53;;;8.53;66.51
49461;BME280;35355;49.198;-0.368;2023-04-07T06:01:28;101382.78;;;8.58;66.32
49461;BME280;35355;49.198;-0.368;2023-04-07T06:03:54;101383.75;;;8.64;66.12
49461;BME280;35355;49.198;-0.368;2023-04-07T06:06:19;101387.69;;;8.68;66.27
49461;BME280;35355;49.198;-0.368;2023-04-07T06:08:45;101392.88;;;8.70;65.95
49461;BME280;35355;49.198;-0.368;2023-04-07T06:11:11;101390.97;;;8.70;65.83
49461;BME280;35355;49.198;-0.368;2023-04-07T06:13:36;101392.88;;;8.70;65.91
49461;BME280;35355;49.198;-0.368;2023-04-07T06:16:02;101399.50;;;8.74;66.05
49461;BME280;35355;49.198;-0.368;2023-04-07T06:18:27;101391.56;;;8.72;65.82
49461;BME280;35355;49.198;-0.368;2023-04-07T06:20:52;101399.63;;;8.79;66.11
49461;BME280;35355;49.198;-0.368;2023-04-07T06:23:18;101399.19;;;8.82;65.96
49461;BME280;35355;49.198;-0.368;2023-04-07T06:25:43;101409.59;;;8.85;66.11
49461;BME280;35355;49.198;-0.368;2023-04-07T06:28:09;101409.59;;;8.85;66.00
49461;BME280;35355;49.198;-0.368;2023-04-07T06:30:35;101413.75;;;8.88;66.13
49461;BME280;35355;49.198;-0.368;2023-04-07T06:33:00;101409.50;;;8.92;66.01
49461;BME280;35355;49.198;-0.368;2023-04-07T06:35:26;101409.38;;;8.99;66.44
49461;BME280;35355;49.198;-0.368;2023-04-07T06:37:51;101414.72;;;9.05;66.37
49461;BME280;35355;49.198;-0.368;2023-04-07T06:40:17;101424.44;;;9.13;66.50
49461;BME280;35355;49.198;-0.368;2023-04-07T06:42:42;101426.22;;;9.19;66.53
49461;BME280;35355;49.198;-0.368;2023-04-07T06:45:08;101432.16;;;9.28;66.50
49461;BME280;35355;49.198;-0.368;2023-04-07T06:47:34;101425.03;;;9.39;66.66
49461;BME280;35355;49.198;-0.368;2023-04-07T06:49:59;101432.75;;;9.54;67.10
49461;BME280;35355;49.198;-0.368;2023-04-07T06:52:24;101433.09;;;9.69;67.14
49461;BME280;35355;49.198;-0.368;2023-04-07T06:54:50;101440.78;;;9.84;67.13
49461;BME280;35355;49.198;-0.368;2023-04-07T06:57:15;101434.00;;;9.98;66.95
49461;BME280;35355;49.198;-0.368;2023-04-07T06:59:41;101443.81;;;10.11;66.66
49461;BME280;35355;49.198;-0.368;2023-04-07T07:02:06;101439.38;;;10.22;66.29
49461;BME280;35355;49.198;-0.368;2023-04-07T07:04:33;101444.44;;;10.30;66.55
49461;BME280;35355;49.198;-0.368;2023-04-07T07:06:58;101444.22;;;10.44;66.00
49461;BME280;35355;49.198;-0.368;2023-04-07T07:09:24;101440.00;;;10.53;66.07
49461;BME280;35355;49.198;-0.368;2023-04-07T07:11:51;101436.38;;;10.64;66.16
49461;BME280;35355;49.198;-0.368;2023-04-07T07:14:17;101437.41;;;10.75;65.79
49461;BME280;35355;49.198;-0.368;2023-04-07T07:16:42;101446.34;;;10.87;65.82
49461;BME280;35355;49.198;-0.368;2023-04-07T07:19:07;101440.50;;;10.96;65.54
49461;BME280;35355;49.198;-0.368;2023-04-07T07:21:33;101441.75;;;11.05;65.09
49461;BME280;35355;49.198;-0.368;2023-04-07T07:23:58;101446.81;;;11.13;64.99
49461;BME280;35355;49.198;-0.368;2023-04-07T07:26:24;101444.50;;;11.22;64.90
49461;BME280;35355;49.198;-0.368;2023-04-07T07:28:50;101446.53;;;11.32;64.89
49461;BME280;35355;49.198;-0.368;2023-04-07T07:31:15;101449.19;;;11.44;64.88
49461;BME280;35355;49.198;-0.368;2023-04-07T07:33:41;101448.53;;;11.53;64.76
49461;BME280;35355;49.198;-0.368;2023-04-07T07:36:09;101448.91;;;11.62;64.41
49461;BME280;35355;49.198;-0.368;2023-04-07T07:38:35;101449.63;;;11.74;63.82
49461;BME280;35355;49.198;-0.368;2023-04-07T07:41:01;101449.78;;;11.85;63.75
49461;BME280;35355;49.198;-0.368;2023-04-07T07:43:26;101452.34;;;11.91;63.22
49461;BME280;35355;49.198;-0.368;2023-04-07T07:45:52;101461.44;;;11.97;63.50
49461;BME280;35355;49.198;-0.368;2023-04-07T07:48:17;101459.94;;;12.06;63.34
49461;BME280;35355;49.198;-0.368;2023-04-07T07:50:42;101467.44;;;12.16;63.01
49461;BME280;35355;49.198;-0.368;2023-04-07T07:53:09;101464.00;;;12.26;62.73
49461;BME280;35355;49.198;-0.368;2023-04-07T07:55:34;101460.31;;;12.37;62.62
49461;BME280;35355;49.198;-0.368;2023-04-07T07:58:00;101456.84;;;12.47;62.05
49461;BME280;35355;49.198;-0.368;2023-04-07T08:00:25;101473.09;;;12.54;61.55
49461;BME280;35355;49.198;-0.368;2023-04-07T08:02:51;101462.78;;;12.61;61.26
49461;BME280;35355;49.198;-0.368;2023-04-07T08:05:16;101469.69;;;12.69;61.11
49461;BME280;35355;49.198;-0.368;2023-04-07T08:07:42;101475.47;;;12.72;60.69
49461;BME280;35355;49.198;-0.368;2023-04-07T08:10:07;101473.50;;;12.68;60.10
49461;BME280;35355;49.198;-0.368;2023-04-07T08:12:33;101476.50;;;12.66;60.26
49461;BME280;35355;49.198;-0.368;2023-04-07T08:14:59;101476.84;;;12.70;59.89
49461;BME280;35355;49.198;-0.368;2023-04-07T08:17:24;101471.66;;;12.73;59.90
49461;BME280;35355;49.198;-0.368;2023-04-07T08:19:49;101471.75;;;12.84;59.23
49461;BME280;35355;49.198;-0.368;2023-04-07T08:22:15;101473.19;;;12.91;59.24
49461;BME280;35355;49.198;-0.368;2023-04-07T08:24:40;101482.56;;;12.95;58.43
49461;BME280;35355;49.198;-0.368;2023-04-07T08:27:06;101472.47;;;13.01;59.10
49461;BME280;35355;49.198;-0.368;2023-04-07T08:29:31;101483.53;;;13.11;59.06
49461;BME280;35355;49.198;-0.368;2023-04-07T08:31:57;101482.50;;;13.23;59.38
49461;BME280;35355;49.198;-0.368;2023-04-07T08:34:22;101487.03;;;13.34;58.81
49461;BME280;35355;49.198;-0.368;2023-04-07T08:36:47;101484.03;;;13.36;58.26
49461;BME280;35355;49.198;-0.368;2023-04-07T08:39:13;101495.25;;;13.34;58.16
49461;BME280;35355;49.198;-0.368;2023-04-07T08:41:40;101500.69;;;13.29;57.71
49461;BME280;35355;49.198;-0.368;2023-04-07T08:44:07;101498.41;;;13.21;57.77
49461;BME280;35355;49.198;-0.368;2023-04-07T08:46:33;101496.97;;;13.13;57.46
49461;BME280;35355;49.198;-0.368;2023-04-07T08:49:00;101495.81;;;13.04;57.45
49461;BME280;35355;49.198;-0.368;2023-04-07T08:51:28;101490.78;;;12.95;57.63
49461;BME280;35355;49.198;-0.368;2023-04-07T08:54:02;101501.44;;;12.92;57.50
49461;BME280;35355;49.198;-0.368;2023-04-07T08:56:31;101494.06;;;12.97;57.48
49461;BME280;35355;49.198;-0.368;2023-04-07T08:58:57;101495.06;;;13.13;57.76
49461;BME280;35355;49.198;-0.368;2023-04-07T09:01:24;101502.56;;;13.28;57.80
49461;BME280;35355;49.198;-0.368;2023-04-07T09:03:49;101505.22;;;13.45;57.56
49461;BME280;35355;49.198;-0.368;2023-04-07T09:06:15;101505.03;;;13.57;57.44
49461;BME280;35355;49.198;-0.368;2023-04-07T09:08:41;101501.53;;;13.67;56.86
49461;BME280;35355;49.198;-0.368;2023-04-07T09:11:06;101502.66;;;13.71;56.43
49461;BME280;35355;49.198;-0.368;2023-04-07T09:13:31;101512.56;;;13.72;56.09
49461;BME280;35355;49.198;-0.368;2023-04-07T09:16:00;101501.03;;;13.70;56.07
49461;BME280;35355;49.198;-0.368;2023-04-07T09:18:27;101510.88;;;13.71;55.79
49461;BME280;35355;49.198;-0.368;2023-04-07T09:21:00;101508.19;;;13.76;56.13
49461;BME280;35355;49.198;-0.368;2023-04-07T09:23:40;101509.34;;;13.85;56.17
49461;BME280;35355;49.198;-0.368;2023-04-07T09:26:26;101506.13;;;13.94;55.81
49461;BME280;35355;49.198;-0.368;2023-04-07T09:29:00;101509.69;;;13.99;55.69
49461;BME280;35355;49.198;-0.368;2023-04-07T09:31:48;101505.03;;;14.00;56.13
49461;BME280;35355;49.198;-0.368;2023-04-07T09:34:33;101510.22;;;13.96;55.49
49461;BME280;35355;49.198;-0.368;2023-04-07T09:37:00;101501.72;;;13.93;54.34
49461;BME280;35355;49.198;-0.368;2023-04-07T09:39:25;101506.66;;;13.91;54.21
49461;BME280;35355;49.198;-0.368;2023-04-07T09:41:52;101505.28;;;13.93;54.31
49461;BME280;35355;49.198;-0.368;2023-04-07T09:44:18;101500.91;;;13.92;54.31
49461;BME280;35355;49.198;-0.368;2023-04-07T09:46:53;101504.44;;;13.93;54.86
49461;BME280;35355;49.198;-0.368;2023-04-07T09:49:19;101508.00;;;13.88;53.95
49461;BME280;35355;49.198;-0.368;2023-04-07T09:51:56;101501.66;;;13.82;54.81
49461;BME280;35355;49.198;-0.368;2023-04-07T09:54:33;101501.66;;;13.88;54.82
49461;BME280;35355;49.198;-0.368;2023-04-07T09:56:59;101502.25;;;13.95;54.11
49461;BME280;35355;49.198;-0.368;2023-04-07T09:59:27;101502.31;;;14.05;53.97
49461;BME280;35355;49.198;-0.368;2023-04-07T10:01:53;101507.84;;;14.15;53.76
49461;BME280;35355;49.198;-0.368;2023-04-07T10:04:19;101499.66;;;14.20;53.80
49461;BME280;35355;49.198;-0.368;2023-04-07T10:06:46;101504.63;;;14.24;53.20
49461;BME280;35355;49.198;-0.368;2023-04-07T10:09:12;101495.81;;;14.21;52.98
49461;BME280;35355;49.198;-0.368;2023-04-07T10:11:40;101495.00;;;14.21;52.88
49461;BME280;35355;49.198;-0.368;2023-04-07T10:14:08;101503.22;;;14.21;52.89
49461;BME280;35355;49.198;-0.368;2023-04-07T10:16:34;101492.25;;;14.21;52.97
49461;BME280;35355;49.198;-0.368;2023-04-07T10:18:59;101493.91;;;14.22;52.88
49461;BME280;35355;49.198;-0.368;2023-04-07T10:21:25;101499.13;;;14.24;53.00
49461;BME280;35355;49.198;-0.368;2023-04-07T10:26:52;101494.72;;;14.17;53.35
49461;BME280;35355;49.198;-0.368;2023-04-07T10:29:18;101493.03;;;14.16;53.25
49461;BME280;35355;49.198;-0.368;2023-04-07T10:31:45;101480.97;;;14.17;53.19
49461;BME280;35355;49.198;-0.368;2023-04-07T10:34:11;101491.41;;;14.20;52.79
49461;BME280;35355;49.198;-0.368;2023-04-07T10:37:12;101488.94;;;14.19;53.93
49461;BME280;35355;49.198;-0.368;2023-04-07T10:39:38;101491.44;;;14.26;53.17
49461;BME280;35355;49.198;-0.368;2023-04-07T10:42:04;101489.25;;;14.28;52.91
49461;BME280;35355;49.198;-0.368;2023-04-07T10:47:07;101498.53;;;14.21;52.63
49461;BME280;35355;49.198;-0.368;2023-04-07T10:49:33;101495.53;;;14.18;52.54
49461;BME280;35355;49.198;-0.368;2023-04-07T10:52:28;101494.72;;;14.23;54.10
49461;BME280;35355;49.198;-0.368;2023-04-07T10:55:29;101502.19;;;14.32;54.15
49461;BME280;35355;49.198;-0.368;2023-04-07T10:58:18;101494.25;;;14.41;54.02
49461;BME280;35355;49.198;-0.368;2023-04-07T11:03:27;101497.84;;;14.47;52.66
49461;BME280;35355;49.198;-0.368;2023-04-07T11:06:05;101502.50;;;14.46;53.19
49461;BME280;35355;49.198;-0.368;2023-04-07T11:08:43;101501.69;;;14.46;53.00
49461;BME280;35355;49.198;-0.368;2023-04-07T11:11:11;101507.19;;;14.46;51.96
49461;BME280;35355;49.198;-0.368;2023-04-07T11:13:47;101498.38;;;14.44;52.67
49461;BME280;35355;49.198;-0.368;2023-04-07T11:16:33;101498.63;;;14.42;53.01
49461;BME280;35355;49.198;-0.368;2023-04-07T11:18:59;101497.81;;;14.42;52.25
49461;BME280;35355;49.198;-0.368;2023-04-07T11:21:25;101504.94;;;14.37;52.87
49461;BME280;35355;49.198;-0.368;2023-04-07T11:23:50;101509.03;;;14.30;52.66
49461;BME280;35355;49.198;-0.368;2023-04-07T11:26:15;101501.56;;;14.20;52.71
49461;BME280;35355;49.198;-0.368;2023-04-07T11:28:52;101502.91;;;14.12;53.24
49461;BME280;35355;49.198;-0.368;2023-04-07T11:31:25;101502.38;;;14.15;53.30
49461;BME280;35355;49.198;-0.368;2023-04-07T11:33:55;101494.16;;;14.20;53.12
49461;BME280;35355;49.198;-0.368;2023-04-07T11:36:31;101499.66;;;14.20;53.25
49461;BME280;35355;49.198;-0.368;2023-04-07T11:38:57;101507.34;;;14.24;52.97
49461;BME280;35355;49.198;-0.368;2023-04-07T11:41:24;101501.03;;;14.23;52.65
49461;BME280;35355;49.198;-0.368;2023-04-07T11:44:06;101501.28;;;14.21;53.35
49461;BME280;35355;49.198;-0.368;2023-04-07T11:46:32;101507.63;;;14.22;52.57
49461;BME280;35355;49.198;-0.368;2023-04-07T11:49:10;101507.06;;;14.20;53.18
49461;BME280;35355;49.198;-0.368;2023-04-07T11:51:36;101493.06;;;14.21;52.72
49461;BME280;35355;49.198;-0.368;2023-04-07T11:54:01;101500.19;;;14.17;52.54
49461;BME280;35355;49.198;-0.368;2023-04-07T11:56:27;101507.91;;;14.20;52.62
49461;BME280;35355;49.198;-0.368;2023-04-07T11:58:55;101517.25;;;14.25;52.44
49461;BME280;35355;49.198;-0.368;2023-04-07T12:01:21;101515.88;;;14.27;52.38
49461;BME280;35355;49.198;-0.368;2023-04-07T12:03:59;101511.22;;;14.28;52.71
49461;BME280;35355;49.198;-0.368;2023-04-07T12:06:29;101517.25;;;14.25;51.95
49461;BME280;35355;49.198;-0.368;2023-04-07T12:08:57;101511.47;;;14.21;51.89
49461;BME280;35355;49.198;-0.368;2023-04-07T12:11:23;101516.66;;;14.17;51.77
49461;BME280;35355;49.198;-0.368;2023-04-07T12:13:49;101513.66;;;14.19;51.84
49461;BME280;35355;49.198;-0.368;2023-04-07T12:16:14;101516.66;;;14.17;51.81
49461;BME280;35355;49.198;-0.368;2023-04-07T12:18:40;101517.50;;;14.18;51.98
49461;BME280;35355;49.198;-0.368;2023-04-07T12:21:05;101519.69;;;14.16;51.88
49461;BME280;35355;49.198;-0.368;2023-04-07T12:23:31;101518.03;;;14.15;51.88
49461;BME280;35355;49.198;-0.368;2023-04-07T12:25:56;101516.38;;;14.14;52.08
49461;BME280;35355;49.198;-0.368;2023-04-07T12:28:21;101518.56;;;14.12;51.71
49461;BME280;35355;49.198;-0.368;2023-04-07T12:30:47;101516.38;;;14.14;52.17
49461;BME280;35355;49.198;-0.368;2023-04-07T12:33:13;101515.53;;;14.13;51.69
49461;BME280;35355;49.198;-0.368;2023-04-07T12:35:38;101512.22;;;14.11;52.32
49461;BME280;35355;49.198;-0.368;2023-04-07T12:38:04;101521.59;;;14.15;52.67
49461;BME280;35355;49.198;-0.368;2023-04-07T12:40:30;101516.09;;;14.15;52.70
49461;BME280;35355;49.198;-0.368;2023-04-07T12:42:56;101517.72;;;14.11;52.44
49461;BME280;35355;49.198;-0.368;2023-04-07T12:45:23;101517.72;;;14.11;52.76
49461;BME280;35355;49.198;-0.368;2023-04-07T12:47:48;101510.88;;;14.14;52.95
49461;BME280;35355;49.198;-0.368;2023-04-07T12:50:13;101515.81;;;14.17;52.93
49461;BME280;35355;49.198;-0.368;2023-04-07T12:52:40;101515.03;;;14.21;53.08
49461;BME280;35355;49.198;-0.368;2023-04-07T12:55:05;101513.41;;;14.26;52.96
49461;BME280;35355;49.198;-0.368;2023-04-07T12:57:31;101515.06;;;14.27;52.92